createdAt,value
2022-12-13T00:00:05.918Z,29.00
2022-12-13T00:03:14.315Z,27.45
2022-12-13T00:06:15.861Z,35.55
2022-12-13T00:09:19.313Z,34.10
2022-12-13T00:12:20.909Z,32.80
2022-12-13T00:15:22.589Z,33.78
2022-12-13T00:18:24.527Z,30.33
2022-12-13T00:21:29.115Z,32.42
2022-12-13T00:24:30.792Z,32.75
2022-12-13T00:27:32.538Z,28.08
2022-12-13T00:30:34.632Z,29.50
2022-12-13T00:33:43.143Z,27.95
2022-12-13T00:36:45.173Z,31.90
2022-12-13T00:39:46.910Z,29.15
2022-12-13T00:42:49.156Z,28.67
2022-12-13T00:45:50.902Z,26.33
2022-12-13T00:48:58.414Z,27.52
2022-12-13T00:52:00.293Z,27.83
2022-12-13T00:55:03.948Z,28.58
2022-12-13T00:58:05.723Z,27.95
2022-12-13T01:01:10.542Z,28.25
2022-12-13T01:04:12.820Z,28.63
2022-12-13T01:07:14.346Z,30.52
2022-12-13T01:10:16.112Z,25.67
2022-12-13T01:13:17.746Z,29.85
2022-12-13T01:16:19.500Z,26.95
2022-12-13T01:19:25.958Z,27.40
2022-12-13T01:22:27.764Z,29.30
2022-12-13T01:25:30.265Z,30.17
2022-12-13T01:28:32.743Z,26.05
2022-12-13T01:31:34.662Z,33.25
2022-12-13T01:34:37.256Z,28.35
2022-12-13T01:37:39.025Z,25.60
2022-12-13T01:40:58.952Z,31.20
2022-12-13T01:44:03.825Z,27.08
2022-12-13T01:47:05.748Z,29.42
2022-12-13T01:50:13.601Z,27.70
2022-12-13T01:53:19.899Z,28.88
2022-12-13T01:56:29.671Z,28.48
2022-12-13T01:59:35.690Z,26.83
2022-12-13T02:02:37.798Z,30.08
2022-12-13T02:05:43.959Z,25.67
2022-12-13T02:08:46.784Z,27.65
2022-12-13T02:11:49.731Z,36.00
2022-12-13T02:14:53.017Z,36.53
2022-12-13T02:18:25.314Z,30.10
2022-12-13T02:21:45.467Z,34.03
2022-12-13T02:25:05.476Z,33.38
2022-12-13T02:28:30.902Z,28.67
2022-12-13T02:31:45.242Z,30.40
2022-12-13T02:35:25.584Z,34.42
2022-12-13T02:38:48.572Z,30.75
2022-12-13T02:41:54.649Z,30.45
2022-12-13T02:45:07.804Z,28.25
2022-12-13T02:48:12.187Z,26.17
2022-12-13T02:51:16.366Z,30.08
2022-12-13T02:54:18.125Z,31.40
2022-12-13T02:57:41.826Z,28.80
2022-12-13T03:00:53.095Z,27.23
2022-12-13T03:04:01.154Z,28.23
2022-12-13T03:07:33.889Z,28.90
2022-12-13T03:10:52.135Z,28.60
2022-12-13T03:13:59.896Z,29.27
2022-12-13T03:17:05.590Z,29.35
2022-12-13T03:20:12.829Z,28.83
2022-12-13T03:23:26.096Z,27.90
2022-12-13T03:26:28.107Z,26.85
2022-12-13T03:29:29.877Z,29.15
2022-12-13T03:32:31.519Z,31.52
2022-12-13T03:35:44.475Z,26.83
2022-12-13T03:38:48.759Z,23.52
2022-12-13T03:41:51.466Z,28.55
2022-12-13T03:44:53.097Z,30.08
2022-12-13T03:47:54.940Z,27.08
2022-12-13T03:50:57.805Z,28.25
2022-12-13T03:53:59.546Z,32.28
2022-12-13T03:57:01.647Z,29.17
2022-12-13T04:00:05.163Z,25.10
2022-12-13T04:03:13.840Z,25.75
2022-12-13T04:06:22.147Z,28.55
2022-12-13T04:09:25.152Z,25.42
2022-12-13T04:12:48.495Z,25.90
2022-12-13T04:15:50.390Z,25.98
2022-12-13T04:18:52.120Z,25.20
2022-12-13T04:21:54.414Z,29.00
2022-12-13T04:24:56.319Z,23.83
2022-12-13T04:27:58.102Z,23.73
2022-12-13T04:30:59.825Z,31.13
2022-12-13T04:34:01.557Z,28.27
2022-12-13T04:37:03.158Z,29.13
2022-12-13T04:40:05.568Z,24.88
2022-12-13T04:43:07.274Z,24.02
2022-12-13T04:46:09.016Z,26.85
2022-12-13T04:49:10.695Z,25.67
2022-12-13T04:52:12.713Z,27.48
2022-12-13T04:55:24.196Z,30.17
2022-12-13T04:58:25.918Z,29.83
2022-12-13T05:01:27.740Z,28.85
2022-12-13T05:04:32.958Z,26.77
2022-12-13T05:07:35.657Z,26.83
2022-12-13T05:10:44.154Z,22.77
2022-12-13T05:13:45.910Z,25.80
2022-12-13T05:16:47.778Z,23.08
2022-12-13T05:19:49.496Z,23.83
2022-12-13T05:22:51.372Z,25.98
2022-12-13T05:25:53.089Z,30.52
2022-12-13T05:28:58.166Z,29.58
2022-12-13T05:32:00.472Z,31.15
2022-12-13T05:35:02.664Z,30.17
2022-12-13T05:38:05.255Z,29.38
2022-12-13T05:41:07.509Z,27.80
2022-12-13T05:44:10.733Z,28.73
2022-12-13T05:47:12.456Z,30.73
2022-12-13T05:50:15.880Z,30.65
2022-12-13T05:53:30.263Z,30.80
2022-12-13T05:56:32.861Z,30.55
2022-12-13T05:59:34.545Z,33.47
2022-12-13T06:02:44.327Z,29.92
2022-12-13T06:05:46.235Z,29.05
2022-12-13T06:08:49.040Z,30.92
2022-12-13T06:11:50.955Z,30.38
2022-12-13T06:14:53.190Z,30.67
2022-12-13T06:18:03.151Z,34.42
2022-12-13T06:21:07.489Z,29.02
2022-12-13T06:24:09.793Z,30.27
2022-12-13T06:27:11.635Z,25.85
2022-12-13T06:30:13.983Z,24.77
2022-12-13T06:33:15.954Z,30.17
2022-12-13T06:36:25.505Z,26.08
2022-12-13T06:39:33.269Z,29.50
2022-12-13T06:42:35.735Z,28.08
2022-12-13T06:45:43.699Z,28.58
2022-12-13T06:48:45.907Z,33.30
2022-12-13T06:51:47.456Z,39.97
2022-12-13T06:54:49.331Z,34.38
2022-12-13T06:57:51.898Z,36.67
2022-12-13T07:01:24.732Z,38.15
2022-12-13T07:04:28.878Z,40.95
2022-12-13T07:07:32.375Z,43.22
2022-12-13T07:10:34.483Z,41.63
2022-12-13T07:13:36.578Z,40.15
2022-12-13T07:16:38.469Z,36.97
2022-12-13T07:19:40.212Z,44.65
2022-12-13T07:22:47.907Z,36.40
2022-12-13T07:25:53.507Z,36.85
2022-12-13T07:28:55.791Z,38.17
2022-12-13T07:32:01.770Z,38.75
2022-12-13T07:35:07.221Z,40.08
2022-12-13T07:38:10.967Z,40.22
2022-12-13T07:41:13.065Z,48.72
2022-12-13T07:44:25.508Z,48.50
2022-12-13T07:47:32.997Z,41.38
2022-12-13T07:50:36.911Z,39.15
2022-12-13T07:53:40.356Z,39.38
2022-12-13T07:56:43.089Z,41.05
2022-12-13T07:59:45.059Z,45.08
2022-12-13T08:02:47.018Z,39.20
2022-12-13T08:05:48.820Z,44.83
2022-12-13T08:08:52.051Z,38.63
2022-12-13T08:11:54.376Z,42.30
2022-12-13T08:14:56.244Z,43.45
2022-12-13T08:18:01.044Z,40.45
2022-12-13T08:21:14.123Z,37.70
2022-12-13T08:24:28.927Z,40.60
2022-12-13T08:27:30.872Z,40.72
2022-12-13T08:30:33.511Z,44.78
2022-12-13T08:33:35.417Z,41.45
2022-12-13T08:36:37.296Z,41.83
2022-12-13T08:39:39.957Z,40.30
2022-12-13T08:42:41.782Z,46.35
2022-12-13T08:45:43.498Z,38.00
2022-12-13T08:48:45.707Z,35.80
2022-12-13T08:51:47.956Z,40.78
2022-12-13T08:54:50.056Z,41.05
2022-12-13T08:57:52.152Z,42.22
2022-12-13T09:00:54.202Z,42.38
2022-12-13T09:03:56.350Z,41.67
2022-12-13T09:07:01.765Z,41.70
2022-12-13T09:10:07.348Z,40.33
2022-12-13T09:13:31.577Z,40.15
2022-12-13T09:16:36.620Z,47.13
2022-12-13T09:19:38.529Z,46.40
2022-12-13T09:22:45.169Z,43.78
2022-12-13T09:25:56.269Z,39.67
2022-12-13T09:29:11.094Z,40.22
2022-12-13T09:32:13.745Z,42.67
2022-12-13T09:35:15.558Z,40.40
2022-12-13T09:38:17.494Z,38.42
2022-12-13T09:41:29.722Z,38.40
2022-12-13T09:44:44.149Z,40.75
2022-12-13T09:47:52.694Z,39.15
2022-12-13T09:51:18.472Z,37.40
2022-12-13T09:54:26.414Z,43.15
2022-12-13T09:57:33.951Z,42.22
2022-12-13T10:00:37.070Z,44.90
2022-12-13T10:03:44.148Z,44.58
2022-12-13T10:06:45.932Z,40.95
2022-12-13T10:09:49.084Z,35.60
2022-12-13T10:12:58.390Z,43.75
2022-12-13T10:16:07.263Z,44.10
2022-12-13T10:19:28.827Z,39.15
2022-12-13T10:22:31.694Z,44.42
2022-12-13T10:25:47.261Z,42.55
2022-12-13T10:29:04.457Z,42.28
2022-12-13T10:32:13.366Z,42.60
2022-12-13T10:35:29.800Z,41.42
2022-12-13T10:38:36.219Z,39.20
2022-12-13T10:41:39.263Z,40.33
2022-12-13T10:44:42.186Z,48.47
2022-12-13T10:47:45.321Z,45.53
2022-12-13T10:50:58.793Z,45.42
2022-12-13T10:54:00.775Z,44.75
2022-12-13T10:57:03.162Z,44.08
2022-12-13T11:00:33.862Z,41.20
2022-12-13T11:03:35.877Z,40.72
2022-12-13T11:06:43.313Z,41.67
2022-12-13T11:09:45.760Z,40.53
2022-12-13T11:13:01.713Z,42.25
2022-12-13T11:16:06.529Z,42.85
2022-12-13T11:19:45.410Z,42.60
2022-12-13T11:22:47.446Z,39.83
2022-12-13T11:25:56.731Z,43.65
2022-12-13T11:29:32.497Z,44.42
2022-12-13T11:33:10.686Z,44.08
2022-12-13T11:36:25.849Z,41.00
2022-12-13T11:40:01.525Z,45.72
2022-12-13T11:43:38.503Z,37.72
2022-12-13T11:46:56.179Z,46.63
2022-12-13T11:49:59.474Z,40.33
2022-12-13T11:53:32.925Z,45.25
2022-12-13T11:56:40.240Z,39.58
2022-12-13T12:00:02.201Z,45.30
2022-12-13T12:03:27.061Z,42.08
2022-12-13T12:07:31.267Z,43.83
2022-12-13T12:10:49.388Z,46.90
2022-12-13T12:13:56.935Z,42.63
2022-12-13T12:16:59.791Z,41.40
2022-12-13T12:20:02.532Z,43.80
2022-12-13T12:23:28.253Z,46.47
2022-12-13T12:26:42.711Z,38.63
2022-12-13T12:30:12.636Z,46.45
2022-12-13T12:33:56.811Z,46.78
2022-12-13T12:37:08.213Z,39.08
2022-12-13T12:40:52.213Z,39.88
2022-12-13T12:44:24.266Z,38.40
2022-12-13T12:48:45.364Z,35.97
2022-12-13T12:51:38.422Z,39.72
2022-12-13T12:55:15.598Z,43.83
2022-12-13T12:58:30.292Z,38.80
2022-12-13T13:01:57.816Z,37.33
2022-12-13T13:05:09.354Z,37.65
2022-12-13T13:08:20.225Z,40.88
2022-12-13T13:11:25.999Z,37.38
2022-12-13T13:14:40.051Z,38.13
2022-12-13T13:17:42.159Z,39.15
2022-12-13T13:21:25.693Z,40.65
2022-12-13T13:24:32.855Z,38.65
2022-12-13T13:27:41.567Z,45.45
2022-12-13T13:31:03.392Z,38.85
2022-12-13T13:34:23.875Z,41.47
2022-12-13T13:37:45.513Z,41.80
2022-12-13T13:40:48.263Z,44.42
2022-12-13T13:43:50.428Z,43.40
2022-12-13T13:47:38.907Z,39.92
2022-12-13T13:51:21.113Z,39.40
2022-12-13T13:54:48.165Z,42.53
2022-12-13T13:58:27.935Z,45.10
2022-12-13T14:01:50.200Z,35.65
2022-12-13T14:05:30.027Z,40.90
2022-12-13T14:09:09.377Z,39.83
2022-12-13T14:12:45.530Z,40.20
2022-12-13T14:16:27.213Z,38.28
2022-12-13T14:19:29.033Z,35.60
2022-12-13T14:23:07.838Z,40.97
2022-12-13T14:26:38.227Z,38.45
2022-12-13T14:29:48.831Z,38.53
2022-12-13T14:33:01.958Z,33.40
2022-12-13T14:36:04.424Z,41.38
2022-12-13T14:39:25.176Z,38.65
2022-12-13T14:42:30.325Z,38.25
2022-12-13T14:45:38.315Z,36.53
2022-12-13T14:48:56.777Z,38.58
2022-12-13T14:52:05.664Z,37.40
2022-12-13T14:55:22.784Z,38.55
2022-12-13T14:58:24.571Z,39.78
2022-12-13T15:01:33.688Z,32.03
2022-12-13T15:04:38.147Z,39.15
2022-12-13T15:07:41.869Z,36.13
2022-12-13T15:10:48.910Z,42.80
2022-12-13T15:13:52.646Z,35.42
2022-12-13T15:16:56.879Z,39.95
2022-12-13T15:20:02.644Z,32.85
2022-12-13T15:23:19.261Z,31.15
2022-12-13T15:26:27.673Z,37.42
2022-12-13T15:29:34.364Z,34.70
2022-12-13T15:33:04.575Z,35.00
2022-12-13T15:36:20.898Z,37.83
2022-12-13T15:39:24.671Z,34.58
2022-12-13T15:42:33.695Z,37.85
2022-12-13T15:45:37.456Z,40.05
2022-12-13T15:48:48.179Z,36.53
2022-12-13T15:52:05.170Z,33.47
2022-12-13T15:55:07.034Z,38.33
2022-12-13T15:58:31.260Z,35.70
2022-12-13T16:01:38.956Z,32.47
2022-12-13T16:04:40.858Z,36.40
2022-12-13T16:07:43.450Z,34.63
2022-12-13T16:10:50.336Z,33.70
2022-12-13T16:13:52.321Z,36.88
2022-12-13T16:17:34.171Z,38.00
2022-12-13T16:20:37.156Z,39.30
2022-12-13T16:23:39.273Z,38.72
2022-12-13T16:26:48.318Z,31.38
2022-12-13T16:29:50.729Z,40.17
2022-12-13T16:33:18.099Z,34.17
2022-12-13T16:36:15.743Z,40.38
2022-12-13T16:39:18.254Z,33.53
2022-12-13T16:42:19.890Z,34.88
2022-12-13T16:48:43.646Z,41.42
2022-12-13T16:51:48.508Z,40.65
2022-12-13T16:54:51.555Z,49.50
2022-12-13T16:58:05.121Z,43.65
2022-12-13T17:01:11.494Z,42.22
2022-12-13T17:04:20.968Z,40.75
2022-12-13T17:07:23.502Z,40.53
2022-12-13T17:10:25.293Z,42.60
2022-12-13T17:13:28.045Z,44.00
2022-12-13T17:16:30.631Z,34.67
2022-12-13T17:19:32.961Z,34.92
2022-12-13T17:22:35.738Z,38.40
2022-12-13T17:25:41.284Z,33.67
2022-12-13T17:28:44.131Z,34.00
2022-12-13T17:31:46.212Z,35.22
2022-12-13T17:34:48.923Z,32.50
2022-12-13T17:37:50.908Z,38.97
2022-12-13T17:40:54.862Z,35.50
2022-12-13T17:44:00.931Z,37.10
2022-12-13T17:47:03.615Z,39.88
2022-12-13T17:50:06.732Z,33.42
2022-12-13T17:53:08.573Z,35.25
2022-12-13T17:56:15.296Z,29.60
2022-12-13T17:59:18.044Z,45.65
2022-12-13T18:02:22.907Z,43.22
2022-12-13T18:05:26.293Z,34.33
2022-12-13T18:08:28.303Z,35.33
2022-12-13T18:11:33.270Z,31.90
2022-12-13T18:14:36.418Z,32.78
2022-12-13T18:18:09.696Z,33.42
2022-12-13T18:21:08.931Z,34.00
2022-12-13T18:24:11.713Z,31.85
2022-12-13T18:27:13.630Z,27.88
2022-12-13T18:30:15.586Z,33.60
2022-12-13T18:33:17.611Z,33.38
2022-12-13T18:36:21.543Z,29.15
2022-12-13T18:39:23.573Z,33.15
2022-12-13T18:42:27.109Z,29.95
2022-12-13T18:45:29.362Z,28.20
2022-12-13T18:48:31.662Z,30.70
2022-12-13T18:51:34.209Z,32.45
2022-12-13T18:54:36.194Z,32.83
2022-12-13T18:57:38.275Z,32.95
2022-12-13T19:00:40.062Z,36.40
2022-12-13T19:03:46.630Z,33.10
2022-12-13T19:06:48.560Z,35.25
2022-12-13T19:09:54.415Z,30.75
2022-12-13T19:12:57.148Z,34.00
2022-12-13T19:16:12.151Z,29.40
2022-12-13T19:19:16.148Z,32.80
2022-12-13T19:22:18.079Z,32.50
2022-12-13T19:25:20.695Z,31.95
2022-12-13T19:28:22.439Z,31.35
2022-12-13T19:31:31.014Z,30.13
2022-12-13T19:34:34.915Z,37.47
2022-12-13T19:37:38.170Z,29.45
2022-12-13T19:40:43.502Z,32.67
2022-12-13T19:43:52.367Z,37.28
2022-12-13T19:46:56.091Z,28.70
2022-12-13T19:49:57.965Z,39.22
2022-12-13T19:52:59.847Z,32.80
2022-12-13T19:56:01.672Z,34.75
2022-12-13T19:59:03.549Z,41.30
2022-12-13T20:02:06.873Z,36.45
2022-12-13T20:05:09.012Z,37.63
2022-12-13T20:08:10.806Z,37.55
2022-12-13T20:11:15.814Z,37.78
2022-12-13T20:14:17.947Z,29.15
2022-12-13T20:17:19.970Z,31.40
2022-12-13T20:20:22.512Z,31.83
2022-12-13T20:23:27.803Z,30.90
2022-12-13T20:26:31.794Z,33.45
2022-12-13T20:29:33.942Z,32.30
2022-12-13T20:32:35.703Z,30.83
2022-12-13T20:35:54.266Z,27.67
2022-12-13T20:39:01.844Z,32.47
2022-12-13T20:42:03.837Z,29.80
2022-12-13T20:45:06.052Z,27.23
2022-12-13T20:48:07.811Z,30.65
2022-12-13T20:51:13.490Z,28.60
2022-12-13T20:54:15.380Z,34.08
2022-12-13T20:57:17.400Z,32.67
2022-12-13T21:00:19.289Z,36.85
2022-12-13T21:03:21.482Z,30.23
2022-12-13T21:06:23.430Z,30.33
2022-12-13T21:09:25.119Z,27.92
2022-12-13T21:12:27.089Z,28.65
2022-12-13T21:15:28.754Z,30.10
2022-12-13T21:18:30.519Z,32.33
2022-12-13T21:21:32.730Z,29.25
2022-12-13T21:24:34.404Z,30.60
2022-12-13T21:27:36.284Z,28.92
2022-12-13T21:30:37.985Z,28.10
2022-12-13T21:33:40.096Z,32.58
2022-12-13T21:36:43.954Z,31.75
2022-12-13T21:39:46.208Z,26.98
2022-12-13T21:42:48.081Z,27.83
2022-12-13T21:45:50.342Z,26.92
2022-12-13T21:48:53.056Z,26.88
2022-12-13T21:51:55.218Z,30.90
2022-12-13T21:55:15.216Z,27.38
2022-12-13T21:58:37.196Z,33.00
2022-12-13T22:02:13.443Z,32.47
2022-12-13T22:05:15.326Z,28.75
2022-12-13T22:08:16.914Z,29.10
2022-12-13T22:11:21.607Z,31.00
2022-12-13T22:14:25.835Z,25.98
2022-12-13T22:17:35.161Z,27.88
2022-12-13T22:20:37.183Z,26.67
2022-12-13T22:23:38.824Z,25.98
2022-12-13T22:26:40.986Z,26.70
2022-12-13T22:29:42.855Z,27.27
2022-12-13T22:32:44.499Z,23.80
2022-12-13T22:35:46.025Z,24.60
2022-12-13T22:38:48.925Z,21.65
2022-12-13T22:41:52.124Z,31.35
2022-12-13T22:44:54.018Z,25.65
2022-12-13T22:47:55.789Z,30.17
2022-12-13T22:51:16.854Z,27.88
2022-12-13T22:57:20.383Z,24.17
2022-12-13T23:00:22.309Z,22.70
2022-12-13T23:03:24.077Z,24.63
2022-12-13T23:06:31.635Z,28.88
2022-12-13T23:09:33.382Z,26.48
2022-12-13T23:12:53.883Z,22.05
2022-12-13T23:15:55.576Z,22.95
2022-12-13T23:19:31.728Z,25.17
2022-12-13T23:22:25.576Z,29.13
2022-12-13T23:25:27.244Z,22.77
2022-12-13T23:28:29.262Z,21.13
2022-12-13T23:31:34.386Z,25.13
2022-12-13T23:34:36.050Z,23.27
2022-12-13T23:37:37.644Z,24.30
2022-12-13T23:40:39.217Z,23.25
2022-12-13T23:43:42.399Z,23.35
2022-12-13T23:46:46.429Z,23.10
2022-12-13T23:49:50.334Z,23.80
2022-12-13T23:52:52.071Z,22.17
2022-12-13T23:55:53.983Z,20.17
2022-12-13T23:58:56.141Z,22.50
